createdAt,value
2023-07-12T00:00:45.013Z,930.69
2023-07-12T00:01:44.995Z,930.73
2023-07-12T00:02:45.040Z,930.70
2023-07-12T00:03:45.112Z,930.71
2023-07-12T00:04:45.046Z,930.70
2023-07-12T00:05:45.052Z,930.72
2023-07-12T00:06:44.943Z,930.73
2023-07-12T00:07:44.978Z,930.74
2023-07-12T00:08:44.936Z,930.74
2023-07-12T00:09:45.010Z,930.72
2023-07-12T00:10:44.900Z,930.74
2023-07-12T00:11:44.861Z,930.76
2023-07-12T00:12:44.962Z,930.80
2023-07-12T00:13:44.908Z,930.76
2023-07-12T00:14:44.855Z,930.78
2023-07-12T00:15:45.003Z,930.82
2023-07-12T00:16:44.912Z,930.77
2023-07-12T00:17:44.968Z,930.79
2023-07-12T00:18:44.906Z,930.77
2023-07-12T00:19:44.759Z,930.80
2023-07-12T00:20:44.858Z,930.79
2023-07-12T00:21:44.863Z,930.80
2023-07-12T00:22:44.836Z,930.83
2023-07-12T00:23:44.805Z,930.81
2023-07-12T00:24:44.766Z,930.82
2023-07-12T00:25:44.710Z,930.80
2023-07-12T00:26:44.716Z,930.92
2023-07-12T00:27:44.717Z,930.83
2023-07-12T00:28:44.768Z,930.82
2023-07-12T00:29:44.719Z,930.85
2023-07-12T00:30:44.692Z,930.85
2023-07-12T00:31:44.710Z,930.83
2023-07-12T00:32:44.861Z,930.85
2023-07-12T00:33:44.684Z,930.87
2023-07-12T00:34:44.620Z,930.89
2023-07-12T00:35:44.660Z,930.87
2023-07-12T00:36:44.601Z,930.90
2023-07-12T00:37:44.652Z,930.90
2023-07-12T00:38:44.611Z,930.88
2023-07-12T00:39:44.603Z,930.85
2023-07-12T00:40:44.630Z,930.86
2023-07-12T00:41:44.587Z,930.89
2023-07-12T00:42:44.560Z,930.85
2023-07-12T00:43:44.567Z,930.83
2023-07-12T00:44:44.563Z,930.84
2023-07-12T00:45:44.713Z,930.81
2023-07-12T00:46:44.535Z,930.79
2023-07-12T00:47:44.492Z,930.81
2023-07-12T00:48:44.518Z,930.83
2023-07-12T00:49:44.424Z,930.79
2023-07-12T00:50:44.496Z,930.79
2023-07-12T00:51:44.487Z,930.81
2023-07-12T00:52:44.488Z,930.82
2023-07-12T00:53:44.459Z,930.84
2023-07-12T00:54:44.408Z,930.82
2023-07-12T00:55:44.434Z,930.80
2023-07-12T00:56:44.401Z,930.83
2023-07-12T00:57:44.462Z,930.77
2023-07-12T00:58:44.405Z,930.74
2023-07-12T00:59:44.312Z,930.73
2023-07-12T01:00:44.385Z,930.73
2023-07-12T01:01:44.343Z,930.68
2023-07-12T01:02:44.503Z,930.71
2023-07-12T01:03:44.434Z,930.68
2023-07-12T01:04:44.300Z,930.69
2023-07-12T01:05:44.303Z,930.64
2023-07-12T01:06:44.314Z,930.65
2023-07-12T01:07:44.269Z,930.67
2023-07-12T01:08:44.294Z,930.66
2023-07-12T01:09:44.272Z,930.70
2023-07-12T01:10:44.269Z,930.67
2023-07-12T01:11:44.195Z,930.67
2023-07-12T01:12:44.281Z,930.65
2023-07-12T01:13:44.247Z,930.67
2023-07-12T01:14:44.247Z,930.67
2023-07-12T01:15:44.245Z,930.63
2023-07-12T01:16:44.326Z,930.68
2023-07-12T01:17:44.273Z,930.66
2023-07-12T01:18:44.187Z,930.66
2023-07-12T01:19:44.087Z,930.67
2023-07-12T01:20:44.148Z,930.69
2023-07-12T01:21:44.150Z,930.72
2023-07-12T01:22:44.147Z,930.66
2023-07-12T01:23:44.044Z,930.70
2023-07-12T01:24:44.054Z,930.73
2023-07-12T01:25:44.040Z,930.72
2023-07-12T01:26:44.153Z,930.75
2023-07-12T01:27:44.763Z,930.75
2023-07-12T01:28:44.111Z,930.73
2023-07-12T01:29:44.038Z,930.75
2023-07-12T01:30:44.057Z,930.73
2023-07-12T01:31:44.055Z,930.72
2023-07-12T01:32:44.023Z,930.74
2023-07-12T01:33:44.090Z,930.76
2023-07-12T01:34:43.991Z,930.74
2023-07-12T01:35:43.976Z,930.72
2023-07-12T01:36:44.009Z,930.71
2023-07-12T01:37:43.884Z,930.71
2023-07-12T01:38:43.967Z,930.69
2023-07-12T01:39:43.874Z,930.66
2023-07-12T01:40:43.938Z,930.68
2023-07-12T01:41:43.846Z,930.72
2023-07-12T01:42:43.952Z,930.71
2023-07-12T01:43:43.935Z,930.72
2023-07-12T01:44:43.873Z,930.70
2023-07-12T01:45:44.616Z,930.75
2023-07-12T01:46:43.961Z,930.74
2023-07-12T01:47:43.860Z,930.74
2023-07-12T01:48:43.861Z,930.78
2023-07-12T01:49:43.804Z,930.81
2023-07-12T01:50:43.756Z,930.79
2023-07-12T01:51:43.796Z,930.78
2023-07-12T01:52:43.731Z,930.77
2023-07-12T01:53:43.766Z,930.78
2023-07-12T01:54:43.783Z,930.75
2023-07-12T01:55:43.714Z,930.75
2023-07-12T01:56:43.776Z,930.73
2023-07-12T01:57:43.756Z,930.73
2023-07-12T01:58:43.665Z,930.75
2023-07-12T01:59:43.633Z,930.72
2023-07-12T02:00:43.632Z,930.73
2023-07-12T02:01:43.703Z,930.71
2023-07-12T02:02:43.672Z,930.68
2023-07-12T02:03:43.752Z,930.67
2023-07-12T02:04:43.612Z,930.69
2023-07-12T02:05:43.621Z,930.68
2023-07-12T02:06:43.633Z,930.72
2023-07-12T02:07:43.597Z,930.71
2023-07-12T02:08:44.172Z,930.72
2023-07-12T02:09:43.579Z,930.75
2023-07-12T02:10:43.531Z,930.74
2023-07-12T02:11:43.586Z,930.75
2023-07-12T02:12:43.501Z,930.76
2023-07-12T02:13:43.551Z,930.77
2023-07-12T02:14:43.471Z,930.77
2023-07-12T02:15:43.516Z,930.74
2023-07-12T02:16:43.465Z,930.74
2023-07-12T02:17:43.579Z,930.76
2023-07-12T02:18:43.555Z,930.78
2023-07-12T02:19:43.400Z,930.74
2023-07-12T02:20:43.453Z,930.74
2023-07-12T02:21:43.453Z,930.77
2023-07-12T02:22:43.402Z,930.76
2023-07-12T02:23:43.434Z,930.72
2023-07-12T02:24:43.440Z,930.74
2023-07-12T02:25:43.357Z,930.73
2023-07-12T02:26:43.357Z,930.69
2023-07-12T02:27:43.410Z,930.67
2023-07-12T02:28:43.385Z,930.71
2023-07-12T02:29:43.334Z,930.71
2023-07-12T02:30:43.331Z,930.73
2023-07-12T02:31:43.382Z,930.72
2023-07-12T02:32:43.381Z,930.75
2023-07-12T02:33:43.466Z,930.73
2023-07-12T02:34:43.249Z,930.70
2023-07-12T02:35:43.288Z,930.72
2023-07-12T02:36:43.230Z,930.66
2023-07-12T02:37:43.194Z,930.67
2023-07-12T02:38:43.204Z,930.66
2023-07-12T02:39:43.240Z,930.64
2023-07-12T02:40:43.191Z,930.65
2023-07-12T02:41:43.224Z,930.61
2023-07-12T02:42:43.192Z,930.62
2023-07-12T02:43:43.120Z,930.58
2023-07-12T02:44:43.230Z,930.65
2023-07-12T02:45:43.213Z,930.65
2023-07-12T02:46:43.122Z,930.63
2023-07-12T02:47:43.201Z,930.64
2023-07-12T02:48:43.075Z,930.65
2023-07-12T02:49:43.050Z,930.63
2023-07-12T02:50:43.094Z,930.60
2023-07-12T02:51:43.109Z,930.63
2023-07-12T02:52:43.103Z,930.59
2023-07-12T02:53:43.034Z,930.57
2023-07-12T02:54:43.129Z,930.57
2023-07-12T02:55:43.008Z,930.55
2023-07-12T02:56:43.069Z,930.51
2023-07-12T02:57:43.049Z,930.51
2023-07-12T02:58:43.019Z,930.50
2023-07-12T02:59:42.944Z,930.47
2023-07-12T03:00:42.981Z,930.45
2023-07-12T03:01:43.071Z,930.41
2023-07-12T03:02:43.019Z,930.43
2023-07-12T03:03:42.977Z,930.46
2023-07-12T03:04:42.923Z,930.41
2023-07-12T03:05:42.879Z,930.41
2023-07-12T03:06:42.964Z,930.39
2023-07-12T03:07:42.863Z,930.43
2023-07-12T03:08:42.927Z,930.40
2023-07-12T03:09:42.849Z,930.37
2023-07-12T03:10:42.858Z,930.42
2023-07-12T03:11:42.811Z,930.36
2023-07-12T03:12:43.472Z,930.38
2023-07-12T03:13:42.783Z,930.35
2023-07-12T03:14:42.879Z,930.32
2023-07-12T03:15:42.772Z,930.35
2023-07-12T03:16:42.868Z,930.31
2023-07-12T03:17:42.777Z,930.30
2023-07-12T03:18:43.025Z,930.37
2023-07-12T03:19:42.715Z,930.32
2023-07-12T03:20:42.802Z,930.34
2023-07-12T03:21:42.765Z,930.36
2023-07-12T03:22:42.786Z,930.31
2023-07-12T03:23:42.671Z,930.31
2023-07-12T03:24:42.753Z,930.31
2023-07-12T03:25:42.665Z,930.31
2023-07-12T03:26:42.702Z,930.32
2023-07-12T03:27:42.779Z,930.33
2023-07-12T03:28:42.637Z,930.32
2023-07-12T03:29:42.618Z,930.34
2023-07-12T03:30:42.710Z,930.34
2023-07-12T03:31:42.777Z,930.36
2023-07-12T03:32:42.691Z,930.36
2023-07-12T03:33:42.601Z,930.39
2023-07-12T03:34:42.593Z,930.38
2023-07-12T03:35:42.563Z,930.39
2023-07-12T03:36:42.596Z,930.41
2023-07-12T03:37:42.545Z,930.44
2023-07-12T03:38:42.567Z,930.43
2023-07-12T03:39:42.632Z,930.41
2023-07-12T03:40:42.544Z,930.40
2023-07-12T03:41:42.556Z,930.41
2023-07-12T03:42:42.519Z,930.37
2023-07-12T03:43:42.474Z,930.35
2023-07-12T03:44:42.497Z,930.35
2023-07-12T03:45:42.482Z,930.35
2023-07-12T03:46:42.498Z,930.35
2023-07-12T03:47:42.557Z,930.35
2023-07-12T03:48:42.453Z,930.36
2023-07-12T03:49:42.401Z,930.43
2023-07-12T03:50:42.435Z,930.38
2023-07-12T03:51:42.383Z,930.42
2023-07-12T03:52:42.366Z,930.40
2023-07-12T03:53:42.379Z,930.37
2023-07-12T03:54:43.060Z,930.39
2023-07-12T03:55:42.400Z,930.35
2023-07-12T03:56:42.303Z,930.34
2023-07-12T03:57:42.390Z,930.38
2023-07-12T03:58:42.268Z,930.39
2023-07-12T03:59:42.378Z,930.35
2023-07-12T04:00:42.273Z,930.37
2023-07-12T04:01:42.300Z,930.38
2023-07-12T04:02:42.257Z,930.42
2023-07-12T04:03:42.388Z,930.35
2023-07-12T04:04:42.254Z,930.36
2023-07-12T04:05:42.240Z,930.35
2023-07-12T04:06:42.186Z,930.33
2023-07-12T04:07:42.210Z,930.32
2023-07-12T04:08:42.248Z,930.30
2023-07-12T04:09:42.307Z,930.26
2023-07-12T04:10:42.153Z,930.31
2023-07-12T04:11:42.220Z,930.30
2023-07-12T04:12:42.174Z,930.25
2023-07-12T04:13:42.127Z,930.25
2023-07-12T04:14:42.163Z,930.26
2023-07-12T04:15:42.225Z,930.23
2023-07-12T04:16:42.094Z,930.24
2023-07-12T04:17:42.192Z,930.25
2023-07-12T04:18:42.076Z,930.25
2023-07-12T04:19:42.059Z,930.26
2023-07-12T04:20:42.084Z,930.28
2023-07-12T04:21:42.102Z,930.27
2023-07-12T04:22:42.028Z,930.29
2023-07-12T04:23:42.067Z,930.31
2023-07-12T04:24:41.972Z,930.33
2023-07-12T04:25:41.981Z,930.31
2023-07-12T04:26:41.952Z,930.34
2023-07-12T04:27:42.023Z,930.42
2023-07-12T04:28:41.933Z,930.30
2023-07-12T04:29:42.037Z,930.28
2023-07-12T04:30:41.930Z,930.24
2023-07-12T04:31:42.005Z,930.21
2023-07-12T04:32:41.948Z,930.26
2023-07-12T04:33:42.030Z,930.21
2023-07-12T04:34:41.940Z,930.20
2023-07-12T04:35:41.873Z,930.24
2023-07-12T04:36:41.898Z,930.26
2023-07-12T04:37:41.911Z,930.22
2023-07-12T04:38:41.867Z,930.21
2023-07-12T04:39:42.305Z,930.24
2023-07-12T04:40:41.790Z,930.25
2023-07-12T04:41:41.852Z,930.24
2023-07-12T04:42:41.940Z,930.21
2023-07-12T04:43:41.773Z,930.20
2023-07-12T04:44:42.624Z,930.20
2023-07-12T04:45:41.787Z,930.18
2023-07-12T04:46:41.752Z,930.19
2023-07-12T04:47:41.909Z,930.17
2023-07-12T04:48:41.691Z,930.18
2023-07-12T04:49:41.766Z,930.14
2023-07-12T04:50:41.679Z,930.13
2023-07-12T04:51:41.746Z,930.14
2023-07-12T04:52:41.658Z,930.11
2023-07-12T04:53:41.735Z,930.05
2023-07-12T04:54:41.684Z,930.09
2023-07-12T04:55:41.689Z,930.05
2023-07-12T04:56:41.610Z,930.06
2023-07-12T04:57:41.679Z,930.04
2023-07-12T04:58:41.648Z,930.03
2023-07-12T04:59:41.646Z,929.99
2023-07-12T05:00:41.605Z,929.95
2023-07-12T05:01:41.612Z,929.96
2023-07-12T05:02:41.535Z,929.94
2023-07-12T05:03:41.706Z,929.89
2023-07-12T05:04:41.559Z,929.91
2023-07-12T05:05:41.527Z,929.88
2023-07-12T05:06:41.496Z,929.86
2023-07-12T05:07:41.586Z,929.89
2023-07-12T05:08:41.454Z,929.95
2023-07-12T05:09:41.594Z,929.86
2023-07-12T05:10:41.449Z,929.83
2023-07-12T05:11:41.473Z,929.84
2023-07-12T05:12:41.480Z,929.82
2023-07-12T05:13:41.440Z,929.74
2023-07-12T05:14:41.465Z,929.76
2023-07-12T05:15:41.421Z,929.75
2023-07-12T05:16:41.449Z,929.72
2023-07-12T05:17:41.550Z,929.73
2023-07-12T05:18:41.402Z,929.71
2023-07-12T05:19:41.488Z,929.72
2023-07-12T05:20:41.327Z,929.68
2023-07-12T05:21:41.367Z,929.67
2023-07-12T05:22:41.284Z,929.63
2023-07-12T05:23:41.458Z,929.60
2023-07-12T05:24:41.339Z,929.65
2023-07-12T05:25:41.303Z,929.65
2023-07-12T05:26:41.306Z,929.67
2023-07-12T05:27:41.463Z,929.63
2023-07-12T05:28:41.239Z,929.60
2023-07-12T05:29:41.268Z,929.65
2023-07-12T05:30:41.296Z,929.66
2023-07-12T05:31:43.371Z,929.73
2023-07-12T05:32:41.259Z,929.64
2023-07-12T05:33:41.206Z,929.60
2023-07-12T05:34:41.767Z,929.62
2023-07-12T05:35:41.233Z,929.65
2023-07-12T05:36:41.144Z,929.64
2023-07-12T05:37:41.222Z,929.62
2023-07-12T05:38:41.197Z,929.63
2023-07-12T05:39:41.136Z,929.60
2023-07-12T05:40:41.170Z,929.57
2023-07-12T05:41:41.177Z,929.56
2023-07-12T05:42:41.155Z,929.56
2023-07-12T05:43:41.102Z,929.55
2023-07-12T05:44:41.122Z,929.54
2023-07-12T05:45:41.154Z,929.58
2023-07-12T05:46:41.042Z,929.57
2023-07-12T05:47:41.115Z,929.60
2023-07-12T05:48:41.005Z,929.55
2023-07-12T05:49:41.010Z,929.57
2023-07-12T05:50:41.043Z,929.58
2023-07-12T05:51:41.010Z,929.53
2023-07-12T05:52:41.019Z,929.50
2023-07-12T05:53:41.063Z,929.49
2023-07-12T05:54:40.998Z,929.52
2023-07-12T05:55:40.943Z,929.49
2023-07-12T05:56:41.002Z,929.49
2023-07-12T05:57:40.979Z,929.44
2023-07-12T05:58:40.952Z,929.44
2023-07-12T05:59:40.994Z,929.43
2023-07-12T06:00:40.939Z,929.42
2023-07-12T06:01:40.921Z,929.38
2023-07-12T06:02:40.892Z,929.38
2023-07-12T06:03:41.068Z,929.39
2023-07-12T06:04:40.907Z,929.37
2023-07-12T06:05:40.906Z,929.39
2023-07-12T06:06:40.881Z,929.37
2023-07-12T06:07:40.881Z,929.34
2023-07-12T06:08:40.851Z,929.32
2023-07-12T06:09:40.861Z,929.34
2023-07-12T06:10:40.821Z,929.31
2023-07-12T06:11:40.815Z,929.33
2023-07-12T06:12:40.794Z,929.37
2023-07-12T06:13:40.873Z,929.35
2023-07-12T06:14:40.776Z,929.40
2023-07-12T06:15:40.803Z,929.37
2023-07-12T06:16:40.801Z,929.39
2023-07-12T06:17:40.895Z,929.40
2023-07-12T06:18:40.742Z,929.42
2023-07-12T06:19:40.727Z,929.40
2023-07-12T06:20:40.698Z,929.35
2023-07-12T06:21:40.843Z,929.34
2023-07-12T06:22:40.676Z,929.31
2023-07-12T06:23:40.693Z,929.29
2023-07-12T06:24:40.681Z,929.28
2023-07-12T06:25:40.664Z,929.26
2023-07-12T06:26:40.638Z,929.24
2023-07-12T06:27:40.662Z,929.22
2023-07-12T06:28:40.616Z,929.22
2023-07-12T06:29:40.616Z,929.18
2023-07-12T06:30:40.618Z,929.18
2023-07-12T06:31:40.603Z,929.19
2023-07-12T06:32:40.637Z,929.16
2023-07-12T06:33:40.606Z,929.15
2023-07-12T06:34:40.548Z,929.12
2023-07-12T06:35:40.577Z,929.13
2023-07-12T06:36:40.513Z,929.06
2023-07-12T06:37:40.570Z,929.08
2023-07-12T06:38:40.505Z,929.10
2023-07-12T06:39:40.621Z,929.08
2023-07-12T06:40:40.473Z,929.06
2023-07-12T06:41:40.496Z,929.08
2023-07-12T06:42:40.459Z,929.09
2023-07-12T06:43:40.462Z,929.08
2023-07-12T06:44:40.438Z,929.12
2023-07-12T06:45:40.461Z,929.15
2023-07-12T06:46:40.457Z,929.18
2023-07-12T06:47:40.426Z,929.18
2023-07-12T06:48:40.404Z,929.16
2023-07-12T06:49:40.404Z,929.18
2023-07-12T06:50:40.385Z,929.17
2023-07-12T06:51:40.496Z,929.19
2023-07-12T06:52:40.339Z,929.22
2023-07-12T06:53:40.361Z,929.17
2023-07-12T06:54:40.306Z,929.23
2023-07-12T06:55:40.342Z,929.21
2023-07-12T06:56:40.291Z,929.19
2023-07-12T06:57:40.403Z,929.18
2023-07-12T06:58:40.272Z,929.15
2023-07-12T06:59:40.281Z,929.15
2023-07-12T07:00:40.253Z,929.17
2023-07-12T07:01:40.307Z,929.19
2023-07-12T07:02:40.277Z,929.16
2023-07-12T07:03:40.290Z,929.19
2023-07-12T07:04:40.204Z,929.22
2023-07-12T07:05:40.225Z,929.21
2023-07-12T07:06:40.182Z,929.19
2023-07-12T07:07:40.189Z,929.20
2023-07-12T07:08:40.202Z,929.15
2023-07-12T07:09:40.250Z,929.14
2023-07-12T07:10:40.148Z,929.11
2023-07-12T07:11:40.140Z,929.09
2023-07-12T07:12:40.114Z,929.04
2023-07-12T07:13:40.120Z,929.06
2023-07-12T07:14:40.090Z,929.04
2023-07-12T07:15:40.121Z,929.04
2023-07-12T07:16:40.098Z,929.07
2023-07-12T07:17:40.157Z,929.01
2023-07-12T07:18:40.168Z,929.01
2023-07-12T07:19:40.049Z,929.03
2023-07-12T07:20:40.026Z,929.03
2023-07-12T07:21:40.058Z,929.06
2023-07-12T07:22:39.995Z,929.10
2023-07-12T07:23:40.042Z,929.08
2023-07-12T07:24:39.985Z,929.19
2023-07-12T07:25:39.995Z,929.13
2023-07-12T07:26:40.008Z,929.10
2023-07-12T07:27:40.066Z,929.10
2023-07-12T07:28:39.977Z,929.09
2023-07-12T07:29:39.951Z,929.12
2023-07-12T07:30:39.909Z,929.11
2023-07-12T07:31:39.963Z,929.13
2023-07-12T07:32:39.911Z,929.10
2023-07-12T07:33:39.934Z,929.10
2023-07-12T07:34:39.859Z,929.10
2023-07-12T07:35:39.865Z,929.09
2023-07-12T07:36:39.869Z,929.07
2023-07-12T07:37:39.826Z,929.09
2023-07-12T07:38:39.850Z,929.06
2023-07-12T07:39:39.882Z,929.09
2023-07-12T07:40:39.814Z,929.03
2023-07-12T07:41:39.808Z,929.05
2023-07-12T07:42:39.793Z,929.04
2023-07-12T07:43:39.750Z,929.02
2023-07-12T07:44:40.221Z,929.00
2023-07-12T07:45:39.895Z,928.99
2023-07-12T07:46:39.822Z,928.99
2023-07-12T07:47:39.754Z,929.00
2023-07-12T07:48:39.745Z,928.98
2023-07-12T07:49:39.685Z,929.00
2023-07-12T07:50:39.704Z,929.00
2023-07-12T07:51:39.935Z,929.02
2023-07-12T07:52:39.673Z,929.01
2023-07-12T07:53:39.647Z,928.98
2023-07-12T07:54:39.654Z,928.95
2023-07-12T07:55:39.637Z,928.92
2023-07-12T07:56:39.641Z,928.95
2023-07-12T07:57:39.614Z,928.90
2023-07-12T07:58:39.613Z,928.91
2023-07-12T07:59:39.582Z,928.87
2023-07-12T08:00:39.596Z,928.87
2023-07-12T08:01:39.559Z,928.86
2023-07-12T08:02:39.896Z,928.85
2023-07-12T08:03:39.829Z,928.86
2023-07-12T08:04:39.617Z,928.85
2023-07-12T08:05:39.516Z,928.83
2023-07-12T08:06:39.527Z,928.76
2023-07-12T08:07:39.491Z,928.76
2023-07-12T08:08:39.500Z,928.72
2023-07-12T08:09:39.646Z,928.67
2023-07-12T08:10:39.491Z,928.67
2023-07-12T08:11:39.449Z,928.65
2023-07-12T08:12:39.451Z,928.63
2023-07-12T08:13:39.416Z,928.63
2023-07-12T08:14:39.435Z,928.63
2023-07-12T08:15:39.417Z,928.60
2023-07-12T08:16:39.519Z,928.55
2023-07-12T08:17:39.412Z,928.59
2023-07-12T08:18:40.140Z,928.63
2023-07-12T08:19:39.350Z,928.62
2023-07-12T08:20:39.363Z,928.67
2023-07-12T08:21:39.459Z,928.70
2023-07-12T08:22:39.365Z,928.69
2023-07-12T08:23:39.378Z,928.71
2023-07-12T08:24:39.305Z,928.70
2023-07-12T08:25:39.287Z,928.70
2023-07-12T08:26:40.383Z,928.65
2023-07-12T08:27:39.373Z,928.68
2023-07-12T08:28:39.269Z,928.69
2023-07-12T08:29:39.221Z,928.72
2023-07-12T08:30:39.308Z,928.74
2023-07-12T08:31:39.290Z,928.74
2023-07-12T08:32:39.318Z,928.75
2023-07-12T08:33:39.443Z,928.74
2023-07-12T08:34:39.765Z,928.79
2023-07-12T08:35:48.159Z,928.82
2023-07-12T08:36:39.275Z,928.79
2023-07-12T08:37:39.173Z,928.79
2023-07-12T08:38:39.150Z,928.78
2023-07-12T08:39:39.178Z,928.79
2023-07-12T08:40:39.125Z,928.80
2023-07-12T08:41:39.086Z,928.81
2023-07-12T08:42:39.108Z,928.84
2023-07-12T08:43:39.077Z,928.82
2023-07-12T08:44:39.077Z,928.87
2023-07-12T08:45:39.088Z,928.84
2023-07-12T08:46:39.088Z,928.82
2023-07-12T08:47:39.053Z,928.82
2023-07-12T08:48:39.084Z,928.86
2023-07-12T08:49:38.995Z,928.82
2023-07-12T08:50:39.109Z,928.85
2023-07-12T08:51:39.268Z,928.83
2023-07-12T08:52:38.993Z,928.87
2023-07-12T08:53:38.997Z,928.90
2023-07-12T08:54:39.045Z,928.92
2023-07-12T08:55:38.969Z,928.89
2023-07-12T08:56:38.944Z,928.90
2023-07-12T08:57:38.934Z,928.97
2023-07-12T08:58:38.966Z,928.93
2023-07-12T08:59:38.935Z,928.97
2023-07-12T09:00:38.916Z,928.98
2023-07-12T09:01:38.896Z,928.98
2023-07-12T09:02:38.956Z,929.03
2023-07-12T09:03:38.953Z,929.01
2023-07-12T09:04:39.042Z,929.06
2023-07-12T09:05:38.912Z,929.03
2023-07-12T09:06:38.853Z,929.02
2023-07-12T09:07:38.792Z,929.03
2023-07-12T09:08:38.820Z,929.03
2023-07-12T09:09:38.816Z,929.05
2023-07-12T09:10:38.779Z,929.02
2023-07-12T09:11:38.761Z,929.03
2023-07-12T09:12:38.881Z,929.07
2023-07-12T09:13:38.739Z,929.06
2023-07-12T09:14:38.733Z,929.08
2023-07-12T09:15:38.824Z,929.07
2023-07-12T09:16:38.779Z,929.07
2023-07-12T09:17:38.683Z,929.06
2023-07-12T09:18:38.873Z,929.04
2023-07-12T09:19:38.720Z,929.03
2023-07-12T09:20:38.685Z,929.08
2023-07-12T09:21:38.701Z,929.10
2023-07-12T09:22:38.661Z,929.12
2023-07-12T09:23:38.692Z,929.15
2023-07-12T09:24:38.627Z,929.16
2023-07-12T09:25:38.586Z,929.16
2023-07-12T09:26:38.602Z,929.13
2023-07-12T09:27:38.613Z,929.14
2023-07-12T09:28:38.587Z,929.19
2023-07-12T09:29:38.740Z,929.16
2023-07-12T09:30:38.653Z,929.15
2023-07-12T09:31:38.588Z,929.19
2023-07-12T09:32:38.571Z,929.15
2023-07-12T09:33:38.660Z,929.18
2023-07-12T09:34:38.575Z,929.21
2023-07-12T09:35:38.478Z,929.21
2023-07-12T09:36:38.484Z,929.23
2023-07-12T09:37:38.505Z,929.21
2023-07-12T09:38:38.504Z,929.23
2023-07-12T09:39:38.431Z,929.19
2023-07-12T09:40:38.617Z,929.19
2023-07-12T09:41:38.515Z,929.20
2023-07-12T09:42:38.428Z,929.12
2023-07-12T09:43:38.427Z,929.14
2023-07-12T09:44:38.526Z,929.10
2023-07-12T09:45:38.630Z,929.09
2023-07-12T09:46:38.419Z,929.07
2023-07-12T09:47:38.368Z,929.07
2023-07-12T09:48:38.454Z,929.06
2023-07-12T09:49:38.364Z,929.05
2023-07-12T09:50:38.466Z,929.02
2023-07-12T09:51:40.049Z,929.01
2023-07-12T09:52:38.302Z,928.98
2023-07-12T09:53:38.475Z,928.91
2023-07-12T09:54:38.293Z,928.92
2023-07-12T09:55:38.242Z,928.84
2023-07-12T09:56:38.293Z,928.83
2023-07-12T09:57:41.219Z,928.87
2023-07-12T09:58:38.234Z,928.85
2023-07-12T09:59:38.192Z,928.88
2023-07-12T10:00:38.216Z,928.86
2023-07-12T10:01:38.247Z,928.88
2023-07-12T10:02:38.274Z,928.88
2023-07-12T10:03:38.155Z,928.89
2023-07-12T10:04:38.317Z,928.87
2023-07-12T10:05:38.310Z,928.90
2023-07-12T10:06:38.209Z,928.90
2023-07-12T10:07:38.281Z,928.89
2023-07-12T10:08:38.272Z,928.88
2023-07-12T10:09:38.163Z,928.86
2023-07-12T10:10:38.088Z,928.90
2023-07-12T10:11:38.291Z,928.86
2023-07-12T10:12:38.214Z,928.88
2023-07-12T10:13:38.096Z,928.86
2023-07-12T10:14:38.062Z,928.87
2023-07-12T10:15:38.203Z,928.90
2023-07-12T10:16:38.181Z,928.88
2023-07-12T10:17:38.035Z,928.91
2023-07-12T10:18:38.066Z,928.95
2023-07-12T10:19:39.312Z,928.98
2023-07-12T10:20:38.079Z,928.94
2023-07-12T10:21:38.010Z,928.98
2023-07-12T10:22:38.160Z,929.03
2023-07-12T10:23:37.910Z,929.05
2023-07-12T10:24:37.975Z,929.07
2023-07-12T10:25:38.004Z,929.08
2023-07-12T10:26:38.112Z,929.06
2023-07-12T10:27:37.970Z,929.08
2023-07-12T10:28:37.891Z,929.10
2023-07-12T10:29:38.092Z,929.06
2023-07-12T10:30:38.083Z,929.13
2023-07-12T10:31:38.029Z,929.04
2023-07-12T10:32:38.177Z,929.08
2023-07-12T10:33:38.243Z,929.11
2023-07-12T10:34:37.917Z,929.09
2023-07-12T10:35:37.812Z,929.08
2023-07-12T10:36:38.036Z,929.06
2023-07-12T10:37:37.924Z,929.06
2023-07-12T10:38:37.787Z,929.05
2023-07-12T10:39:37.778Z,929.00
2023-07-12T10:40:38.550Z,929.07
2023-07-12T10:41:37.728Z,929.05
2023-07-12T10:42:37.758Z,929.04
2023-07-12T10:43:37.715Z,929.07
2023-07-12T10:44:37.701Z,929.07
2023-07-12T10:45:37.786Z,929.09
2023-07-12T10:46:39.003Z,929.12
2023-07-12T10:47:37.720Z,929.06
2023-07-12T10:48:37.653Z,929.01
2023-07-12T10:49:37.619Z,929.08
2023-07-12T10:50:37.641Z,929.12
2023-07-12T10:51:37.753Z,929.13
2023-07-12T10:52:38.340Z,929.09
2023-07-12T10:53:37.574Z,929.08
2023-07-12T10:54:37.659Z,929.15
2023-07-12T10:55:37.613Z,929.15
2023-07-12T10:56:37.558Z,929.17
2023-07-12T10:57:37.537Z,929.14
2023-07-12T10:58:37.954Z,929.18
2023-07-12T10:59:37.486Z,929.19
2023-07-12T11:00:37.592Z,929.16
2023-07-12T11:01:37.489Z,929.13
2023-07-12T11:02:37.581Z,929.18
2023-07-12T11:03:37.586Z,929.15
2023-07-12T11:04:39.725Z,929.12
2023-07-12T11:05:37.429Z,929.09
2023-07-12T11:06:37.466Z,929.11
2023-07-12T11:07:37.492Z,929.14
2023-07-12T11:08:37.430Z,929.11
2023-07-12T11:09:37.413Z,929.09
2023-07-12T11:10:37.422Z,929.09
2023-07-12T11:11:37.354Z,929.09
2023-07-12T11:12:37.385Z,929.09
2023-07-12T11:13:37.373Z,929.13
2023-07-12T11:14:37.345Z,929.08
2023-07-12T11:15:37.374Z,929.13
2023-07-12T11:16:37.376Z,929.13
2023-07-12T11:17:37.319Z,929.12
2023-07-12T11:18:37.407Z,929.14
2023-07-12T11:19:37.287Z,929.13
2023-07-12T11:20:37.397Z,929.10
2023-07-12T11:21:37.392Z,929.07
2023-07-12T11:22:37.276Z,929.13
2023-07-12T11:23:37.245Z,929.16
2023-07-12T11:24:37.240Z,929.17
2023-07-12T11:25:37.211Z,929.17
2023-07-12T11:26:37.215Z,929.22
2023-07-12T11:27:37.268Z,929.23
2023-07-12T11:28:37.196Z,929.22
2023-07-12T11:29:37.234Z,929.26
2023-07-12T11:30:37.166Z,929.25
2023-07-12T11:31:37.145Z,929.25
2023-07-12T11:32:37.116Z,929.28
2023-07-12T11:33:37.058Z,929.25
2023-07-12T11:34:37.077Z,929.32
2023-07-12T11:35:37.024Z,929.34
2023-07-12T11:36:37.053Z,929.31
2023-07-12T11:37:37.029Z,929.31
2023-07-12T11:38:37.091Z,929.41
2023-07-12T11:39:37.341Z,929.27
2023-07-12T11:40:37.100Z,929.30
2023-07-12T11:41:36.973Z,929.32
2023-07-12T11:42:36.973Z,929.35
2023-07-12T11:43:37.007Z,929.34
2023-07-12T11:44:37.049Z,929.40
2023-07-12T11:45:36.920Z,929.37
2023-07-12T11:46:37.555Z,929.37
2023-07-12T11:47:36.990Z,929.34
2023-07-12T11:48:36.888Z,929.31
2023-07-12T11:49:36.940Z,929.31
2023-07-12T11:50:37.656Z,929.33
2023-07-12T11:51:37.001Z,929.39
2023-07-12T11:52:36.879Z,929.41
2023-07-12T11:53:37.348Z,929.43
2023-07-12T11:54:36.904Z,929.46
2023-07-12T11:55:36.864Z,929.45
2023-07-12T11:56:37.562Z,929.47
2023-07-12T11:57:36.869Z,929.46
2023-07-12T11:58:36.755Z,929.48
2023-07-12T11:59:36.771Z,929.50
2023-07-12T12:00:36.789Z,929.45
2023-07-12T12:01:36.767Z,929.42
2023-07-12T12:02:36.755Z,929.48
2023-07-12T12:03:36.859Z,929.46
2023-07-12T12:04:36.817Z,929.45
2023-07-12T12:05:36.787Z,929.44
2023-07-12T12:06:36.669Z,929.50
2023-07-12T12:07:36.698Z,929.46
2023-07-12T12:08:37.313Z,929.45
2023-07-12T12:09:36.741Z,929.48
2023-07-12T12:10:36.682Z,929.45
2023-07-12T12:11:36.668Z,929.40
2023-07-12T12:12:36.664Z,929.39
2023-07-12T12:13:36.679Z,929.40
2023-07-12T12:14:36.592Z,929.45
2023-07-12T12:15:36.704Z,929.43
2023-07-12T12:16:36.634Z,929.44
2023-07-12T12:17:36.757Z,929.53
2023-07-12T12:18:36.914Z,929.40
2023-07-12T12:19:36.882Z,929.42
2023-07-12T12:20:36.670Z,929.39
2023-07-12T12:21:36.856Z,929.36
2023-07-12T12:22:36.606Z,929.37
2023-07-12T12:23:36.485Z,929.37
2023-07-12T12:24:36.457Z,929.44
2023-07-12T12:25:36.473Z,929.36
2023-07-12T12:26:37.374Z,929.41
2023-07-12T12:27:36.554Z,929.40
2023-07-12T12:28:36.495Z,929.44